createdAt,value
2019-02-20T00:02:51.901Z,101328.14
2019-02-20T00:05:56.214Z,101330.78
2019-02-20T00:09:00.500Z,101336.06
2019-02-20T00:12:06.719Z,101329.45
2019-02-20T00:15:11.047Z,101333.41
2019-02-20T00:18:15.296Z,101329.47
2019-02-20T00:21:19.590Z,101338.25
2019-02-20T00:24:24.023Z,101333.41
2019-02-20T00:27:28.293Z,101342.22
2019-02-20T00:30:32.739Z,101341.32
2019-02-20T00:33:37.033Z,101353.66
2019-02-20T00:36:41.305Z,101348.38
2019-02-20T00:39:45.663Z,101360.25
2019-02-20T00:42:49.941Z,101354.97
2019-02-20T00:46:03.792Z,101356.31
2019-02-20T00:49:21.966Z,101352.33
2019-02-20T00:52:32.913Z,101363.77
2019-02-20T00:55:37.276Z,101362.00
2019-02-20T00:58:41.586Z,101366.41
2019-02-20T01:01:45.853Z,101374.75
2019-02-20T01:04:51.137Z,101372.16
2019-02-20T01:07:55.417Z,101368.19
2019-02-20T01:11:04.515Z,101380.03
2019-02-20T01:14:08.977Z,101377.83
2019-02-20T01:17:13.670Z,101381.36
2019-02-20T01:20:18.087Z,101367.77
2019-02-20T01:23:22.342Z,101382.22
2019-02-20T01:26:27.831Z,101384.42
2019-02-20T01:29:32.318Z,101380.02
2019-02-20T01:32:37.758Z,101371.65
2019-02-20T01:35:47.367Z,101378.23
2019-02-20T01:38:51.645Z,101385.27
2019-02-20T01:41:56.082Z,101384.38
2019-02-20T01:45:00.359Z,101380.92
2019-02-20T01:48:04.831Z,101378.72
2019-02-20T01:51:09.145Z,101380.92
2019-02-20T01:54:13.442Z,101379.63
2019-02-20T01:57:17.857Z,101373.48
2019-02-20T02:00:22.158Z,101387.98
2019-02-20T02:03:26.841Z,101379.66
2019-02-20T02:06:31.120Z,101370.85
2019-02-20T02:09:36.598Z,101373.92
2019-02-20T02:12:40.943Z,101376.53
2019-02-20T02:15:45.469Z,101381.81
2019-02-20T02:18:51.477Z,101388.84
2019-02-20T02:21:55.801Z,101388.41
2019-02-20T02:25:00.153Z,101384.88
2019-02-20T02:28:04.832Z,101394.09
2019-02-20T02:31:09.219Z,101392.78
2019-02-20T02:34:14.603Z,101389.22
2019-02-20T02:37:18.927Z,101388.79
2019-02-20T02:40:23.205Z,101397.14
2019-02-20T02:43:28.594Z,101390.52
2019-02-20T02:46:33.276Z,101394.93
2019-02-20T02:49:37.547Z,101393.61
2019-02-20T02:52:41.883Z,101393.64
2019-02-20T02:55:46.149Z,101390.54
2019-02-20T02:58:50.438Z,101390.59
2019-02-20T03:01:55.911Z,101397.19
2019-02-20T03:05:00.528Z,101404.66
2019-02-20T03:08:04.974Z,101406.00
2019-02-20T03:11:09.260Z,101403.83
2019-02-20T03:14:13.529Z,101409.97
2019-02-20T03:17:18.909Z,101409.95
2019-02-20T03:20:23.196Z,101407.77
2019-02-20T03:23:27.482Z,101400.32
2019-02-20T03:26:34.544Z,101404.29
2019-02-20T03:29:38.975Z,101413.10
2019-02-20T03:32:43.260Z,101406.02
2019-02-20T03:35:47.545Z,101410.44
2019-02-20T03:38:51.908Z,101410.87
2019-02-20T03:41:57.714Z,101412.61
2019-02-20T03:45:02.005Z,101413.51
2019-02-20T03:48:06.302Z,101418.38
2019-02-20T03:51:10.589Z,101429.34
2019-02-20T03:54:17.362Z,101432.84
2019-02-20T03:57:24.257Z,101428.45
2019-02-20T04:00:28.532Z,101421.89
2019-02-20T04:03:32.836Z,101417.52
2019-02-20T04:06:37.137Z,101425.86
2019-02-20T04:09:44.295Z,101440.80
2019-02-20T04:12:51.345Z,101439.05
2019-02-20T04:15:55.851Z,101437.73
2019-02-20T04:19:00.380Z,101427.17
2019-02-20T04:22:10.167Z,101428.95
2019-02-20T04:25:14.575Z,101435.53
2019-02-20T04:28:18.855Z,101440.36
2019-02-20T04:31:23.219Z,101438.16
2019-02-20T04:34:30.264Z,101443.83
2019-02-20T04:37:34.553Z,101445.15
2019-02-20T04:40:38.862Z,101449.55
2019-02-20T04:43:43.131Z,101457.86
2019-02-20T04:46:47.661Z,101455.20
2019-02-20T04:49:51.999Z,101462.22
2019-02-20T04:52:56.278Z,101456.92
2019-02-20T04:56:00.551Z,101458.67
2019-02-20T04:59:04.992Z,101466.15
2019-02-20T05:02:09.380Z,101464.41
2019-02-20T05:05:13.770Z,101467.90
2019-02-20T05:08:18.045Z,101469.22
2019-02-20T05:11:22.324Z,101466.55
2019-02-20T05:14:26.577Z,101463.05
2019-02-20T05:17:30.956Z,101463.94
2019-02-20T05:20:40.725Z,101455.59
2019-02-20T05:23:45.017Z,101451.19
2019-02-20T05:26:51.917Z,101467.02
2019-02-20T05:29:57.323Z,101470.54
2019-02-20T05:33:01.643Z,101474.09
2019-02-20T05:36:06.018Z,101476.70
2019-02-20T05:39:10.279Z,101473.61
2019-02-20T05:42:14.572Z,101467.92
2019-02-20T05:45:18.863Z,101465.62
2019-02-20T05:48:23.140Z,101462.56
2019-02-20T05:51:27.444Z,101469.12
2019-02-20T05:54:34.534Z,101477.98
2019-02-20T05:57:38.114Z,101484.19
2019-02-20T06:00:42.407Z,101481.52
2019-02-20T06:03:46.682Z,101483.30
2019-02-20T06:06:50.976Z,101477.56
2019-02-20T06:09:58.501Z,101472.34
2019-02-20T06:13:04.247Z,101481.52
2019-02-20T06:16:08.524Z,101485.05
2019-02-20T06:19:15.910Z,101486.72
2019-02-20T06:22:20.230Z,101492.06
2019-02-20T06:25:26.685Z,101491.17
2019-02-20T06:28:30.682Z,101496.45
2019-02-20T06:31:34.974Z,101501.23
2019-02-20T06:34:39.371Z,101504.86
2019-02-20T06:37:43.657Z,101500.91
2019-02-20T06:40:47.925Z,101512.28
2019-02-20T06:43:53.669Z,101511.39
2019-02-20T06:46:57.937Z,101523.19
2019-02-20T06:50:04.567Z,101523.25
2019-02-20T06:53:09.214Z,101526.28
2019-02-20T06:56:13.465Z,101529.78
2019-02-20T06:59:17.773Z,101535.05
2019-02-20T07:02:25.271Z,101536.33
2019-02-20T07:05:42.749Z,101541.17
2019-02-20T07:09:06.034Z,101537.69
2019-02-20T07:12:35.019Z,101541.18
2019-02-20T07:15:56.382Z,101547.34
2019-02-20T07:19:37.831Z,101543.85
2019-02-20T07:22:55.252Z,101550.02
2019-02-20T07:26:58.495Z,101553.55
2019-02-20T07:30:04.618Z,101558.05
2019-02-20T07:33:08.971Z,101566.89
2019-02-20T07:36:13.291Z,101569.53
2019-02-20T07:39:17.584Z,101567.39
2019-02-20T07:42:21.791Z,101571.38
2019-02-20T07:45:26.478Z,101577.55
2019-02-20T07:48:30.784Z,101576.20
2019-02-20T07:51:35.221Z,101583.36
2019-02-20T07:54:39.649Z,101583.42
2019-02-20T07:57:43.948Z,101583.39
2019-02-20T08:00:48.278Z,101589.98
2019-02-20T08:03:52.772Z,101601.44
2019-02-20T08:06:57.086Z,101597.48
2019-02-20T08:10:01.391Z,101599.75
2019-02-20T08:13:05.706Z,101600.23
2019-02-20T08:16:09.976Z,101602.47
2019-02-20T08:19:14.282Z,101607.76
2019-02-20T08:22:18.572Z,101612.20
2019-02-20T08:25:23.969Z,101614.78
2019-02-20T08:28:28.270Z,101614.76
2019-02-20T08:31:32.720Z,101618.29
2019-02-20T08:34:37.263Z,101627.99
2019-02-20T08:37:41.567Z,101627.16
2019-02-20T08:40:45.975Z,101630.27
2019-02-20T08:43:50.287Z,101630.31
2019-02-20T08:46:54.608Z,101636.05
2019-02-20T08:50:00.937Z,101639.60
2019-02-20T08:53:05.242Z,101637.00
2019-02-20T08:56:09.640Z,101644.97
2019-02-20T08:59:13.933Z,101643.23
2019-02-20T09:02:18.224Z,101645.92
2019-02-20T09:05:25.719Z,101640.63
2019-02-20T09:08:30.020Z,101646.83
2019-02-20T09:11:36.095Z,101645.94
2019-02-20T09:14:40.379Z,101649.50
2019-02-20T09:17:44.715Z,101649.95
2019-02-20T09:20:49.050Z,101668.45
2019-02-20T09:23:53.325Z,101668.48
2019-02-20T09:26:57.744Z,101671.13
2019-02-20T09:30:02.031Z,101671.56
2019-02-20T09:33:06.299Z,101676.86
2019-02-20T09:36:10.617Z,101676.41
2019-02-20T09:39:32.348Z,101672.91
2019-02-20T09:42:38.083Z,101679.55
2019-02-20T09:45:44.537Z,101678.22
2019-02-20T09:48:48.410Z,101672.89
2019-02-20T09:51:54.214Z,101675.95
2019-02-20T09:54:58.508Z,101686.12
2019-02-20T09:58:02.943Z,101676.86
2019-02-20T10:01:07.212Z,101683.95
2019-02-20T10:04:11.639Z,101683.95
2019-02-20T10:07:15.938Z,101688.82
2019-02-20T10:10:20.277Z,101685.70
2019-02-20T10:13:24.685Z,101684.84
2019-02-20T10:16:30.773Z,101686.15
2019-02-20T10:19:35.066Z,101699.39
2019-02-20T10:22:39.770Z,101700.70
2019-02-20T10:25:46.070Z,101708.21
2019-02-20T10:28:50.350Z,101711.77
2019-02-20T10:31:56.697Z,101715.27
2019-02-20T10:35:00.982Z,101717.00
2019-02-20T10:38:07.175Z,101722.77
2019-02-20T10:41:11.470Z,101720.59
2019-02-20T10:44:17.068Z,101730.73
2019-02-20T10:47:21.477Z,101730.25
2019-02-20T10:50:25.809Z,101733.35
2019-02-20T10:53:30.321Z,101741.30
2019-02-20T10:56:36.089Z,101743.05
2019-02-20T10:59:40.479Z,101747.48
2019-02-20T11:02:44.740Z,101756.33
2019-02-20T11:05:49.028Z,101751.47
2019-02-20T11:08:53.351Z,101753.67
2019-02-20T11:11:57.768Z,101758.08
2019-02-20T11:15:02.127Z,101764.28
2019-02-20T11:18:06.538Z,101757.66
2019-02-20T11:21:12.349Z,101769.17
2019-02-20T11:24:17.891Z,101762.94
2019-02-20T11:27:25.068Z,101762.48
2019-02-20T11:30:29.382Z,101754.98
2019-02-20T11:33:35.219Z,101756.33
2019-02-20T11:36:40.542Z,101757.20
2019-02-20T11:39:46.993Z,101761.22
2019-02-20T11:42:51.262Z,101751.91
2019-02-20T11:45:57.794Z,101753.23
2019-02-20T11:49:02.128Z,101755.89
2019-02-20T11:52:09.323Z,101765.19
2019-02-20T11:55:14.010Z,101769.61
2019-02-20T11:58:24.723Z,101767.39
2019-02-20T12:01:28.645Z,101767.81
2019-02-20T12:04:32.969Z,101767.39
2019-02-20T12:07:37.275Z,101769.58
2019-02-20T12:10:41.595Z,101771.34
2019-02-20T12:13:45.985Z,101766.48
2019-02-20T12:16:53.154Z,101772.24
2019-02-20T12:19:58.739Z,101783.28
2019-02-20T12:23:03.024Z,101778.39
2019-02-20T12:26:07.321Z,101790.34
2019-02-20T12:29:13.494Z,101782.84
2019-02-20T12:32:19.559Z,101783.73
2019-02-20T12:35:23.827Z,101785.48
2019-02-20T12:38:28.240Z,101786.82
2019-02-20T12:41:33.020Z,101786.38
2019-02-20T12:44:38.358Z,101792.55
2019-02-20T12:47:43.580Z,101791.66
2019-02-20T12:50:48.317Z,101795.20
2019-02-20T12:53:52.750Z,101789.91
2019-02-20T12:56:57.051Z,101796.08
2019-02-20T13:00:01.375Z,101789.91
2019-02-20T13:03:08.851Z,101794.33
2019-02-20T13:06:13.123Z,101793.86
2019-02-20T13:09:19.427Z,101789.86
2019-02-20T13:12:23.834Z,101799.19
2019-02-20T13:15:28.189Z,101790.80
2019-02-20T13:18:32.495Z,101790.34
2019-02-20T13:21:36.780Z,101793.45
2019-02-20T13:24:41.158Z,101796.52
2019-02-20T13:27:45.606Z,101793.02
2019-02-20T13:30:49.951Z,101795.20
2019-02-20T13:33:54.258Z,101793.45
2019-02-20T13:37:01.549Z,101790.34
2019-02-20T13:40:06.258Z,101788.12
2019-02-20T13:43:10.670Z,101782.42
2019-02-20T13:46:15.035Z,101789.03
2019-02-20T13:49:19.429Z,101788.56
2019-02-20T13:52:23.741Z,101780.61
2019-02-20T13:55:34.430Z,101793.45
2019-02-20T13:58:35.663Z,101787.70
2019-02-20T14:01:40.046Z,101792.55
2019-02-20T14:04:44.362Z,101793.00
2019-02-20T14:07:48.728Z,101785.50
2019-02-20T14:10:53.051Z,101790.77
2019-02-20T14:13:57.456Z,101784.59
2019-02-20T14:17:01.741Z,101793.46
2019-02-20T14:20:06.989Z,101792.55
2019-02-20T14:23:11.489Z,101797.84
2019-02-20T14:26:15.886Z,101789.45
2019-02-20T14:29:20.226Z,101795.66
2019-02-20T14:32:26.191Z,101799.60
2019-02-20T14:35:31.051Z,101803.48
2019-02-20T14:38:35.458Z,101801.73
2019-02-20T14:41:40.193Z,101809.66
2019-02-20T14:44:44.691Z,101802.17
2019-02-20T14:47:49.214Z,101805.63
2019-02-20T14:50:55.421Z,101808.77
2019-02-20T14:53:59.722Z,101800.38
2019-02-20T14:57:04.066Z,101807.84
2019-02-20T15:00:09.840Z,101801.17
2019-02-20T15:03:27.020Z,101800.31
2019-02-20T15:06:34.162Z,101803.83
2019-02-20T15:09:38.801Z,101804.34
2019-02-20T15:12:43.170Z,101812.66
2019-02-20T15:15:47.687Z,101807.83
2019-02-20T15:18:55.435Z,101807.44
2019-02-20T15:22:00.252Z,101810.10
2019-02-20T15:25:04.904Z,101803.92
2019-02-20T15:28:10.415Z,101809.63
2019-02-20T15:31:15.131Z,101806.50
2019-02-20T15:34:20.631Z,101805.17
2019-02-20T15:37:25.472Z,101807.83
2019-02-20T15:40:30.293Z,101810.45
2019-02-20T15:43:34.822Z,101800.30
2019-02-20T15:46:39.398Z,101809.13
2019-02-20T15:49:43.978Z,101802.97
2019-02-20T15:52:48.443Z,101808.70
2019-02-20T15:55:53.058Z,101811.28
2019-02-20T15:58:57.514Z,101817.00
2019-02-20T16:02:02.624Z,101811.67
2019-02-20T16:05:08.933Z,101813.46
2019-02-20T16:08:13.415Z,101817.02
2019-02-20T16:11:17.946Z,101809.95
2019-02-20T16:14:22.441Z,101818.27
2019-02-20T16:17:26.888Z,101810.73
2019-02-20T16:20:33.572Z,101817.83
2019-02-20T16:23:37.979Z,101816.03
2019-02-20T16:26:43.836Z,101818.24
2019-02-20T16:29:48.324Z,101820.45
2019-02-20T16:32:53.692Z,101809.44
2019-02-20T16:35:58.250Z,101812.03
2019-02-20T16:39:02.738Z,101809.03
2019-02-20T16:42:07.629Z,101811.20
2019-02-20T16:45:18.970Z,101816.03
2019-02-20T16:48:23.565Z,101807.20
2019-02-20T16:51:27.980Z,101803.23
2019-02-20T16:54:32.716Z,101813.78
2019-02-20T16:57:37.302Z,101813.35
2019-02-20T17:00:41.947Z,101822.15
2019-02-20T17:03:46.764Z,101815.53
2019-02-20T17:06:51.450Z,101818.61
2019-02-20T17:09:56.752Z,101818.23
2019-02-20T17:13:02.554Z,101811.62
2019-02-20T17:16:07.489Z,101811.62
2019-02-20T17:19:12.249Z,101823.53
2019-02-20T17:22:18.348Z,101824.88
2019-02-20T17:25:23.184Z,101820.53
2019-02-20T17:28:27.758Z,101823.98
2019-02-20T17:31:33.336Z,101823.15
2019-02-20T17:34:37.752Z,101827.58
2019-02-20T17:37:42.047Z,101820.53
2019-02-20T17:40:46.474Z,101819.66
2019-02-20T17:43:50.779Z,101815.63
2019-02-20T17:46:55.143Z,101818.75
2019-02-20T17:49:59.505Z,101817.91
2019-02-20T17:53:03.957Z,101812.56
2019-02-20T17:56:09.714Z,101812.98
2019-02-20T17:59:14.040Z,101811.67
2019-02-20T18:02:21.554Z,101814.73
2019-02-20T18:05:27.820Z,101808.55
2019-02-20T18:08:32.109Z,101814.76
2019-02-20T18:11:36.463Z,101813.84
2019-02-20T18:14:40.855Z,101805.05
2019-02-20T18:17:45.276Z,101806.34
2019-02-20T18:20:49.670Z,101808.55
2019-02-20T18:23:53.974Z,101808.12
2019-02-20T18:26:58.298Z,101816.05
2019-02-20T18:30:02.625Z,101804.20
2019-02-20T18:33:06.938Z,101809.52
2019-02-20T18:36:11.724Z,101808.60
2019-02-20T18:39:16.295Z,101816.59
2019-02-20T18:42:20.633Z,101808.24
2019-02-20T18:45:24.937Z,101824.09
2019-02-20T18:48:29.460Z,101819.26
2019-02-20T18:51:33.771Z,101820.51
2019-02-20T18:54:38.080Z,101822.72
2019-02-20T18:57:42.691Z,101828.89
2019-02-20T19:00:46.979Z,101831.92
2019-02-20T19:03:51.338Z,101840.31
2019-02-20T19:06:55.635Z,101829.30
2019-02-20T19:10:02.709Z,101831.03
2019-02-20T19:13:59.211Z,101828.09
2019-02-20T19:17:53.273Z,101825.89
2019-02-20T19:21:21.853Z,101825.89
2019-02-20T19:25:15.372Z,101826.69
2019-02-20T19:28:43.822Z,101832.00
2019-02-20T19:32:28.483Z,101829.36
2019-02-20T19:36:05.257Z,101824.14
2019-02-20T19:39:27.014Z,101823.58
2019-02-20T19:42:58.400Z,101819.59
2019-02-20T19:46:42.428Z,101827.55
2019-02-20T19:50:41.859Z,101821.88
2019-02-20T19:54:26.429Z,101826.69
2019-02-20T19:58:10.327Z,101827.98
2019-02-20T20:02:27.530Z,101837.73
2019-02-20T20:06:06.303Z,101820.50
2019-02-20T20:09:45.298Z,101830.20
2019-02-20T20:13:15.510Z,101835.00
2019-02-20T20:16:46.341Z,101833.27
2019-02-20T20:20:01.015Z,101834.11
2019-02-20T20:23:45.316Z,101830.22
2019-02-20T20:27:31.174Z,101832.41
2019-02-20T20:31:09.798Z,101827.92
2019-02-20T20:35:10.049Z,101835.51
2019-02-20T20:38:52.048Z,101837.21
2019-02-20T20:42:34.253Z,101842.47
2019-02-20T20:46:26.065Z,101839.40
2019-02-20T20:50:11.549Z,101837.15
2019-02-20T20:54:03.178Z,101833.22
2019-02-20T20:57:44.107Z,101833.64
2019-02-20T21:01:14.394Z,101832.75
2019-02-20T21:05:20.991Z,101827.47
2019-02-20T21:08:44.611Z,101828.82
2019-02-20T21:12:29.956Z,101832.30
2019-02-20T21:16:11.518Z,101828.33
2019-02-20T21:19:59.766Z,101830.97
2019-02-20T21:23:45.225Z,101831.86
2019-02-20T21:27:25.491Z,101825.25
2019-02-20T21:31:19.056Z,101824.36
2019-02-20T21:34:53.881Z,101826.11
2019-02-20T21:38:31.825Z,101829.22
2019-02-20T21:42:05.969Z,101829.64
2019-02-20T21:45:56.284Z,101828.39
2019-02-20T21:49:32.767Z,101841.15
2019-02-20T21:53:20.520Z,101833.67
2019-02-20T21:56:37.453Z,101830.16
2019-02-20T22:00:15.854Z,101837.20
2019-02-20T22:04:03.837Z,101830.17
2019-02-20T22:08:01.115Z,101827.49
2019-02-20T22:11:27.213Z,101832.33
2019-02-20T22:18:26.249Z,101826.14
2019-02-20T22:22:41.896Z,101815.14
2019-02-20T22:26:14.808Z,101816.45
2019-02-20T22:29:56.891Z,101823.00
2019-02-20T22:33:41.163Z,101817.29
2019-02-20T22:37:27.494Z,101813.36
2019-02-20T22:40:51.212Z,101815.53
2019-02-20T22:44:51.989Z,101813.78
2019-02-20T22:48:30.484Z,101814.67
2019-02-20T22:52:02.290Z,101818.70
2019-02-20T22:55:58.922Z,101810.31
2019-02-20T22:59:18.660Z,101815.14
2019-02-20T23:02:51.790Z,101813.38
2019-02-20T23:06:48.855Z,101811.62
2019-02-20T23:10:37.333Z,101812.52
2019-02-20T23:14:22.574Z,101814.24
2019-02-20T23:17:27.666Z,101816.89
2019-02-20T23:20:31.976Z,101816.05
2019-02-20T23:23:36.294Z,101812.98
2019-02-20T23:26:42.706Z,101814.27
2019-02-20T23:29:47.995Z,101820.42
2019-02-20T23:32:52.286Z,101815.16
2019-02-20T23:35:56.616Z,101819.53
2019-02-20T23:39:00.996Z,101822.72
2019-02-20T23:42:05.501Z,101816.48
2019-02-20T23:45:09.939Z,101825.72
2019-02-20T23:48:14.223Z,101821.28
2019-02-20T23:51:18.512Z,101816.86
2019-02-20T23:54:23.510Z,101823.98
2019-02-20T23:57:27.915Z,101815.63
